Time;durP1;ratioP1;P1;durP2;ratioP2;P2;SDS_P1;SDS_P2;PMS_P1;PMS_P2;Temp;Humidity;BMP_temperature;BMP_pressure;BME280_temperature;BME280_humidity;BME280_pressure;Samples;Min_cycle;Max_cycle;Signal;HPM_P1;HPM_P2
2021/11/06 00:02:03;;;;;;;39.92;21.83;;;5.90;99.90;;;;;;4926577;29;20052;-65
2021/11/06 00:04:30;;;;;;;39.08;22.40;;;5.90;99.90;;;;;;4948964;28;20656;-67
2021/11/06 00:06:57;;;;;;;40.22;23.58;;;6.00;99.90;;;;;;4952790;28;20035;-66
2021/11/06 00:09:25;;;;;;;40.95;22.58;;;5.90;99.90;;;;;;4952445;29;20046;-65
2021/11/06 00:11:52;;;;;;;41.15;24.35;;;6.00;99.90;;;;;;4952755;29;20043;-66
2021/11/06 00:14:20;;;;;;;41.45;23.02;;;6.00;99.90;;;;;;4952620;29;20059;-66
2021/11/06 00:16:47;;;;;;;40.75;23.45;;;6.00;99.90;;;;;;4952671;28;20087;-68
2021/11/06 00:19:14;;;;;;;46.28;24.27;;;6.10;99.90;;;;;;4952812;28;20055;-66
2021/11/06 00:21:42;;;;;;;43.75;23.67;;;6.10;99.90;;;;;;4952272;28;20164;-65
2021/11/06 00:24:09;;;;;;;42.60;23.77;;;6.10;99.90;;;;;;4938350;29;20043;-65
2021/11/06 00:26:36;;;;;;;40.42;22.92;;;6.10;99.90;;;;;;4951837;28;20044;-66
2021/11/06 00:29:04;;;;;;;44.58;24.10;;;6.10;99.90;;;;;;4952530;28;20067;-66
2021/11/06 00:31:32;;;;;;;40.22;22.92;;;6.10;99.90;;;;;;4940286;28;20523;-65
2021/11/06 00:33:59;;;;;;;40.00;23.73;;;6.10;99.90;;;;;;4952199;29;20047;-66
2021/11/06 00:36:27;;;;;;;44.15;25.75;;;6.10;99.90;;;;;;4953694;28;20051;-66
2021/11/06 00:38:55;;;;;;;40.33;23.67;;;6.10;99.90;;;;;;4941521;28;20513;-66
2021/11/06 00:41:22;;;;;;;38.00;23.15;;;6.10;99.90;;;;;;4952179;29;20502;-65
2021/11/06 00:43:53;;;;;;;38.20;22.90;;;6.10;99.90;;;;;;4952326;29;20046;-66
2021/11/06 00:46:21;;;;;;;39.85;23.17;;;6.10;99.90;;;;;;4952043;28;20059;-66
2021/11/06 00:48:48;;;;;;;40.25;23.60;;;6.00;99.90;;;;;;4946310;29;20047;-66
2021/11/06 00:51:15;;;;;;;41.50;23.60;;;6.00;99.90;;;;;;4946255;28;20047;-66
2021/11/06 00:53:42;;;;;;;40.85;22.70;;;6.00;99.90;;;;;;4937014;28;20047;-66
2021/11/06 00:56:10;;;;;;;38.80;22.85;;;6.00;99.90;;;;;;4951976;28;20483;-67
2021/11/06 00:58:37;;;;;;;38.97;22.85;;;6.00;99.90;;;;;;4943996;29;20475;-66
2021/11/06 01:01:04;;;;;;;41.55;23.02;;;6.00;99.90;;;;;;4950713;29;20054;-66
2021/11/06 01:03:32;;;;;;;39.75;22.70;;;5.90;99.90;;;;;;4951403;29;20478;-65
2021/11/06 01:05:59;;;;;;;44.13;24.77;;;5.90;99.90;;;;;;4951452;28;20037;-65
2021/11/06 01:08:26;;;;;;;37.80;22.20;;;5.90;99.90;;;;;;4951722;29;20413;-65
2021/11/06 01:10:54;;;;;;;37.15;22.58;;;5.90;99.90;;;;;;4951244;28;20043;-65
2021/11/06 01:13:22;;;;;;;41.13;23.38;;;5.80;99.90;;;;;;4952001;28;20051;-65
2021/11/06 01:15:49;;;;;;;38.67;22.83;;;5.80;99.90;;;;;;4954944;29;20522;-65
2021/11/06 01:18:16;;;;;;;40.45;22.92;;;5.80;99.90;;;;;;4951526;28;20052;-64
2021/11/06 01:20:44;;;;;;;39.67;22.02;;;5.70;99.90;;;;;;4948311;29;20058;-65
2021/11/06 01:23:11;;;;;;;40.83;23.27;;;5.70;99.90;;;;;;4942232;29;20040;-65
2021/11/06 01:25:39;;;;;;;38.28;22.55;;;5.70;99.90;;;;;;4946743;29;20498;-65
2021/11/06 01:28:06;;;;;;;38.22;22.52;;;5.70;99.90;;;;;;4940917;29;20035;-65
2021/11/06 01:30:34;;;;;;;43.83;22.75;;;5.70;99.90;;;;;;4953732;29;20062;-65
2021/11/06 01:33:01;;;;;;;41.45;22.02;;;5.70;99.90;;;;;;4937890;29;20054;-65
2021/11/06 01:35:29;;;;;;;41.38;22.77;;;5.60;99.90;;;;;;4954833;29;20050;-65
2021/11/06 01:37:59;;;;;;;38.88;22.40;;;5.70;99.90;;;;;;4955221;28;20062;-65
2021/11/06 01:40:28;;;;;;;40.80;22.08;;;5.60;99.90;;;;;;4952306;28;20052;-67
2021/11/06 01:42:55;;;;;;;38.22;21.02;;;5.60;99.90;;;;;;4948106;29;20055;-67
2021/11/06 01:45:24;;;;;;;36.53;21.88;;;5.60;99.90;;;;;;4940971;29;20046;-67
2021/11/06 01:47:52;;;;;;;36.80;21.95;;;5.60;99.90;;;;;;4940551;29;20134;-67
2021/11/06 01:50:21;;;;;;;39.63;22.02;;;5.60;99.90;;;;;;4943769;29;20046;-67
2021/11/06 01:52:49;;;;;;;39.65;21.35;;;5.50;99.90;;;;;;4957251;28;20048;-67
2021/11/06 01:55:16;;;;;;;36.08;21.20;;;5.50;99.90;;;;;;4936447;29;20598;-67
2021/11/06 01:57:45;;;;;;;38.85;21.38;;;5.40;99.90;;;;;;4937836;29;20047;-67
2021/11/06 02:00:22;;;;;;;35.88;21.38;;;5.40;99.90;;;;;;4954463;28;20054;-67
2021/11/06 02:02:50;;;;;;;38.03;21.73;;;5.40;99.90;;;;;;4956604;28;20043;-67
2021/11/06 02:05:17;;;;;;;36.75;21.27;;;5.30;99.90;;;;;;4943488;29;20036;-68
2021/11/06 02:07:45;;;;;;;40.97;23.15;;;5.30;99.90;;;;;;4948462;29;20040;-67
2021/11/06 02:10:13;;;;;;;36.47;20.85;;;5.40;99.90;;;;;;4948669;28;20094;-68
2021/11/06 02:12:42;;;;;;;36.58;21.42;;;5.40;99.90;;;;;;4953115;28;20268;-68
2021/11/06 02:15:13;;;;;;;36.83;21.55;;;5.40;99.90;;;;;;4952034;29;20039;-68
2021/11/06 02:17:42;;;;;;;38.08;21.38;;;5.40;99.90;;;;;;4953075;29;20043;-68
2021/11/06 02:20:11;;;;;;;37.15;20.52;;;5.40;99.90;;;;;;4943715;28;20084;-68
2021/11/06 02:22:39;;;;;;;35.38;20.15;;;5.40;99.90;;;;;;4948268;29;20051;-67
2021/11/06 02:25:08;;;;;;;37.20;21.85;;;5.40;99.90;;;;;;4935997;29;20043;-68
2021/11/06 02:27:35;;;;;;;38.08;22.05;;;5.40;99.90;;;;;;4951881;28;20047;-67
2021/11/06 02:30:05;;;;;;;37.05;21.85;;;5.40;99.90;;;;;;4950598;28;20036;-68
2021/11/06 02:32:33;;;;;;;37.40;21.45;;;5.50;99.90;;;;;;4951992;28;20126;-68
2021/11/06 02:35:00;;;;;;;34.88;19.60;;;5.50;99.90;;;;;;4953682;28;20054;-67
2021/11/06 02:37:28;;;;;;;36.83;21.13;;;5.50;99.90;;;;;;4951963;28;20141;-67
2021/11/06 02:39:55;;;;;;;35.60;20.38;;;5.50;99.90;;;;;;4952408;29;20054;-67
2021/11/06 02:42:23;;;;;;;30.13;19.00;;;5.50;99.90;;;;;;4952137;29;20043;-68
2021/11/06 02:44:50;;;;;;;35.80;21.05;;;5.50;99.90;;;;;;4952315;29;20521;-67
2021/11/06 02:47:18;;;;;;;32.72;19.52;;;5.50;99.90;;;;;;4924818;29;20410;-67
2021/11/06 02:49:45;;;;;;;36.15;21.23;;;5.50;99.90;;;;;;4952845;28;20047;-67
2021/11/06 02:52:12;;;;;;;35.92;21.05;;;5.50;99.90;;;;;;4952373;28;20039;-68
2021/11/06 02:54:40;;;;;;;39.53;21.80;;;5.50;99.90;;;;;;4949597;28;20452;-68
2021/11/06 02:57:10;;;;;;;39.03;23.02;;;5.50;99.90;;;;;;4952124;28;20051;-68
2021/11/06 02:59:38;;;;;;;40.40;22.70;;;5.50;99.90;;;;;;4951939;28;20047;-67
2021/11/06 03:02:05;;;;;;;35.78;20.17;;;5.40;99.90;;;;;;4952475;29;20043;-68
2021/11/06 03:04:37;;;;;;;38.88;21.65;;;5.40;99.90;;;;;;4954227;28;20097;-67
2021/11/06 03:07:05;;;;;;;37.50;21.43;;;5.40;99.90;;;;;;4945667;29;20039;-68
2021/11/06 03:09:38;;;;;;;39.13;21.77;;;5.40;99.90;;;;;;4955125;28;20490;-68
2021/11/06 03:12:07;;;;;;;37.17;21.77;;;5.40;99.90;;;;;;4951144;29;20530;-68
2021/11/06 03:14:36;;;;;;;36.00;21.27;;;5.40;99.90;;;;;;4943878;29;20074;-67
2021/11/06 03:17:04;;;;;;;36.33;21.17;;;5.40;99.90;;;;;;4952513;28;20043;-67
2021/11/06 03:19:32;;;;;;;37.38;21.48;;;5.40;99.90;;;;;;4952150;29;20517;-67
2021/11/06 03:21:59;;;;;;;37.72;20.83;;;5.40;99.90;;;;;;4941552;29;20047;-69
2021/11/06 03:24:27;;;;;;;36.33;20.35;;;5.40;99.90;;;;;;4952629;28;20131;-69
2021/11/06 03:26:54;;;;;;;41.47;23.67;;;5.40;99.90;;;;;;4952792;28;20098;-69
2021/11/06 03:29:21;;;;;;;36.00;20.55;;;5.40;99.90;;;;;;4952940;28;20528;-69
2021/11/06 03:31:49;;;;;;;37.75;20.10;;;5.40;99.90;;;;;;4947852;28;20043;-69
2021/11/06 03:34:16;;;;;;;33.47;19.17;;;5.40;99.90;;;;;;4952975;28;20130;-69
2021/11/06 03:36:44;;;;;;;32.53;20.02;;;5.40;99.90;;;;;;4952496;28;20118;-69
2021/11/06 03:39:11;;;;;;;37.70;20.08;;;5.40;99.90;;;;;;4949659;28;20043;-69
2021/11/06 03:41:39;;;;;;;37.85;20.58;;;5.40;99.90;;;;;;4950180;28;20125;-68
2021/11/06 03:44:07;;;;;;;33.35;19.45;;;5.40;99.90;;;;;;4950827;28;20059;-68
2021/11/06 03:46:35;;;;;;;33.83;19.95;;;5.40;99.90;;;;;;4950687;29;20063;-68
2021/11/06 03:49:03;;;;;;;34.70;20.45;;;5.40;99.90;;;;;;4952377;28;20054;-68
2021/11/06 03:51:31;;;;;;;32.53;19.83;;;5.40;99.90;;;;;;4952550;28;20051;-68
2021/11/06 03:53:58;;;;;;;34.90;20.13;;;5.40;99.90;;;;;;4938174;29;20051;-68
2021/11/06 03:56:26;;;;;;;34.08;20.75;;;5.40;99.90;;;;;;4952572;29;20039;-68
2021/11/06 03:58:54;;;;;;;33.72;20.67;;;5.40;99.90;;;;;;4952472;29;20055;-68
2021/11/06 04:01:22;;;;;;;33.35;20.50;;;5.40;99.90;;;;;;4950869;29;20066;-68
2021/11/06 04:03:49;;;;;;;33.08;19.63;;;5.40;99.90;;;;;;4950960;29;20384;-68
2021/11/06 04:06:17;;;;;;;30.98;19.38;;;5.40;99.90;;;;;;4950440;29;20049;-68
2021/11/06 04:08:44;;;;;;;34.42;19.60;;;5.40;99.90;;;;;;4950719;29;20046;-68
2021/11/06 04:11:11;;;;;;;30.20;17.75;;;5.40;99.90;;;;;;4952275;28;20047;-67
2021/11/06 04:13:39;;;;;;;35.42;19.80;;;5.40;99.90;;;;;;4950988;28;20466;-67
2021/11/06 04:16:06;;;;;;;34.42;20.13;;;5.40;99.90;;;;;;4950244;29;20534;-67
2021/11/06 04:18:33;;;;;;;35.30;20.33;;;5.30;99.90;;;;;;4951178;28;20080;-68
2021/11/06 04:21:01;;;;;;;32.63;18.92;;;5.30;99.90;;;;;;4923698;29;20063;-68
2021/11/06 04:23:28;;;;;;;33.55;19.35;;;5.30;99.90;;;;;;4951189;29;20047;-67
2021/11/06 04:25:56;;;;;;;34.78;20.33;;;5.30;99.90;;;;;;4952094;29;20052;-67
2021/11/06 04:28:24;;;;;;;30.88;18.45;;;5.30;99.90;;;;;;4952384;28;20067;-67
2021/11/06 04:30:51;;;;;;;34.80;18.75;;;5.20;99.90;;;;;;4952326;28;20082;-67
2021/11/06 04:33:19;;;;;;;30.73;18.38;;;5.20;99.90;;;;;;4936142;29;20493;-68
2021/11/06 04:35:47;;;;;;;32.60;18.45;;;5.20;99.90;;;;;;4951643;28;20050;-67
2021/11/06 04:38:14;;;;;;;31.65;17.83;;;5.20;99.90;;;;;;4948157;29;20075;-67
2021/11/06 04:40:42;;;;;;;30.25;18.65;;;5.20;99.90;;;;;;4950608;28;20061;-67
2021/11/06 04:43:09;;;;;;;33.65;18.70;;;5.20;99.90;;;;;;4948615;29;20127;-67
2021/11/06 04:45:36;;;;;;;28.38;17.33;;;5.20;99.90;;;;;;4950766;28;20036;-68
2021/11/06 04:48:06;;;;;;;31.08;17.77;;;5.20;99.90;;;;;;4951460;28;20459;-67
2021/11/06 04:50:33;;;;;;;31.17;17.50;;;5.20;99.90;;;;;;4955886;29;20047;-68
2021/11/06 04:53:01;;;;;;;29.80;16.80;;;5.10;99.90;;;;;;4955760;29;20040;-67
2021/11/06 04:55:28;;;;;;;29.98;17.02;;;5.10;99.90;;;;;;4954798;29;20078;-67
2021/11/06 04:57:55;;;;;;;29.77;17.10;;;5.10;99.90;;;;;;4955585;29;20043;-68
2021/11/06 05:00:23;;;;;;;31.42;19.02;;;5.10;99.90;;;;;;4934773;29;20054;-69
2021/11/06 05:02:50;;;;;;;36.42;19.80;;;5.10;99.90;;;;;;4954851;29;20051;-67
2021/11/06 05:05:17;;;;;;;32.22;18.13;;;5.20;99.90;;;;;;4954099;28;20078;-67
2021/11/06 05:07:45;;;;;;;31.10;17.77;;;5.20;99.90;;;;;;4956020;28;20035;-67
2021/11/06 05:10:12;;;;;;;32.17;19.05;;;5.10;99.90;;;;;;4952749;28;20044;-67
2021/11/06 05:12:40;;;;;;;35.42;19.50;;;5.20;99.90;;;;;;4955193;29;20051;-67
2021/11/06 05:15:08;;;;;;;30.17;19.23;;;5.20;99.90;;;;;;4953697;28;20047;-67
2021/11/06 05:17:36;;;;;;;32.65;18.38;;;5.20;99.90;;;;;;4953723;28;20055;-67
2021/11/06 05:20:05;;;;;;;32.90;18.42;;;5.20;99.90;;;;;;4941577;29;20051;-67
2021/11/06 05:22:34;;;;;;;29.02;17.27;;;5.20;99.90;;;;;;4953664;28;20051;-67
2021/11/06 05:25:04;;;;;;;30.05;17.20;;;5.20;99.90;;;;;;4954275;28;20047;-67
2021/11/06 05:27:32;;;;;;;31.10;18.33;;;5.10;99.90;;;;;;4955159;28;20058;-67
2021/11/06 05:30:00;;;;;;;29.77;17.30;;;5.10;99.90;;;;;;4955043;28;20043;-68
2021/11/06 05:32:27;;;;;;;29.08;16.65;;;5.10;99.90;;;;;;4955118;28;20095;-68
2021/11/06 05:34:55;;;;;;;30.48;18.20;;;5.10;99.90;;;;;;4942068;28;20039;-67
2021/11/06 05:37:22;;;;;;;30.30;18.20;;;5.10;99.90;;;;;;4949958;29;20051;-67
2021/11/06 05:39:49;;;;;;;30.52;18.25;;;5.10;99.90;;;;;;4952243;29;20044;-68
2021/11/06 05:42:17;;;;;;;31.52;17.75;;;5.00;99.90;;;;;;4952793;28;20095;-67
2021/11/06 05:44:44;;;;;;;32.60;18.17;;;5.00;99.90;;;;;;4953768;29;20049;-67
2021/11/06 05:47:11;;;;;;;27.52;17.17;;;5.00;99.90;;;;;;4954293;28;20459;-67
2021/11/06 05:49:39;;;;;;;31.50;17.90;;;5.00;99.90;;;;;;4954796;28;20059;-67
2021/11/06 05:52:17;;;;;;;31.05;17.65;;;4.90;99.90;;;;;;4954694;28;20075;-67
2021/11/06 05:54:44;;;;;;;33.78;20.13;;;4.90;99.90;;;;;;4954705;28;20039;-67
2021/11/06 05:57:12;;;;;;;36.55;20.77;;;4.90;99.90;;;;;;4954385;29;20407;-67
2021/11/06 05:59:39;;;;;;;38.15;19.80;;;4.80;99.90;;;;;;4950487;28;20043;-67
2021/11/06 06:02:07;;;;;;;32.38;18.70;;;4.80;99.90;;;;;;4953096;28;20145;-67
2021/11/06 06:04:34;;;;;;;32.35;19.25;;;4.80;99.90;;;;;;4944142;29;20051;-67
2021/11/06 06:07:03;;;;;;;30.70;17.65;;;4.70;99.90;;;;;;4943616;29;20043;-69
2021/11/06 06:09:30;;;;;;;34.00;19.38;;;4.70;99.90;;;;;;4952261;28;20534;-68
2021/11/06 06:11:58;;;;;;;33.88;18.88;;;4.50;99.90;;;;;;4948378;28;20036;-69
2021/11/06 06:14:26;;;;;;;31.85;18.42;;;4.40;99.90;;;;;;4952057;29;20039;-68
2021/11/06 06:16:54;;;;;;;30.50;17.70;;;4.40;99.90;;;;;;4937496;28;20040;-68
2021/11/06 06:19:21;;;;;;;33.67;18.27;;;4.30;99.90;;;;;;4941355;28;20052;-68
2021/11/06 06:21:48;;;;;;;30.90;18.27;;;4.30;99.90;;;;;;4944294;29;20562;-68
2021/11/06 06:24:15;;;;;;;32.35;18.55;;;4.20;99.90;;;;;;4947372;28;20043;-68
2021/11/06 06:26:43;;;;;;;33.22;18.58;;;4.20;99.90;;;;;;4955395;28;20043;-67
2021/11/06 06:29:10;;;;;;;35.60;20.13;;;4.10;99.90;;;;;;4957790;28;20039;-74
2021/11/06 06:31:37;;;;;;;30.65;17.55;;;4.00;99.90;;;;;;4951152;28;20070;-67
2021/11/06 06:34:05;;;;;;;33.85;19.13;;;4.00;99.90;;;;;;4938609;29;20043;-68
2021/11/06 06:36:32;;;;;;;32.47;19.23;;;4.00;99.90;;;;;;4940959;28;20043;-68
2021/11/06 06:38:59;;;;;;;34.63;19.45;;;3.90;99.90;;;;;;4952995;28;20579;-68
2021/11/06 06:41:27;;;;;;;33.95;19.02;;;3.90;99.90;;;;;;4936712;29;20063;-68
2021/11/06 06:43:56;;;;;;;32.88;18.48;;;3.80;99.90;;;;;;4950982;28;20049;-68
2021/11/06 06:46:24;;;;;;;35.25;19.95;;;3.80;99.90;;;;;;4952381;29;20047;-68
2021/11/06 06:48:51;;;;;;;32.60;18.73;;;3.80;99.90;;;;;;4940697;29;20123;-68
2021/11/06 06:51:18;;;;;;;31.33;17.73;;;3.80;99.90;;;;;;4953735;28;20104;-68
2021/11/06 06:53:46;;;;;;;34.33;19.08;;;3.80;99.90;;;;;;4948087;29;20047;-68
2021/11/06 06:56:13;;;;;;;33.15;19.13;;;3.80;99.90;;;;;;4954860;28;20490;-68
2021/11/06 06:58:40;;;;;;;33.03;17.80;;;3.80;99.90;;;;;;4942436;29;20054;-68
2021/11/06 07:01:08;;;;;;;33.58;19.13;;;3.80;99.90;;;;;;4954008;29;20047;-67
2021/11/06 07:03:35;;;;;;;29.33;17.42;;;3.90;99.90;;;;;;4952822;28;20055;-68
2021/11/06 07:06:03;;;;;;;33.15;18.58;;;3.90;99.90;;;;;;4951852;29;20059;-68
2021/11/06 07:08:31;;;;;;;30.63;17.95;;;3.90;99.90;;;;;;4946128;28;20049;-68
2021/11/06 07:10:58;;;;;;;36.45;19.98;;;4.00;99.90;;;;;;4953241;28;20146;-68
2021/11/06 07:13:26;;;;;;;35.88;20.95;;;4.00;99.90;;;;;;4947164;28;20337;-68
2021/11/06 07:15:53;;;;;;;32.67;18.83;;;4.10;99.90;;;;;;4957991;28;20051;-68
2021/11/06 07:18:20;;;;;;;28.95;17.33;;;4.20;99.90;;;;;;4945649;28;20058;-68
2021/11/06 07:20:48;;;;;;;31.45;17.92;;;4.20;99.90;;;;;;4931887;29;20479;-68
2021/11/06 07:23:15;;;;;;;31.52;18.05;;;4.30;99.90;;;;;;4945841;29;20049;-68
2021/11/06 07:25:42;;;;;;;30.48;17.80;;;4.30;99.90;;;;;;4946054;28;20050;-68
2021/11/06 07:28:10;;;;;;;33.80;19.63;;;4.30;99.90;;;;;;4953231;28;20126;-68
2021/11/06 07:30:37;;;;;;;35.30;19.45;;;4.30;99.90;;;;;;4952954;28;20047;-68
2021/11/06 07:33:05;;;;;;;32.70;19.00;;;4.30;99.90;;;;;;4945891;29;20665;-68
2021/11/06 07:35:32;;;;;;;31.75;17.15;;;4.30;99.90;;;;;;4943787;29;20063;-67
2021/11/06 07:37:59;;;;;;;32.85;19.42;;;4.40;99.90;;;;;;4942384;29;20066;-67
2021/11/06 07:40:26;;;;;;;40.60;23.48;;;4.40;99.90;;;;;;4952693;28;20047;-67
2021/11/06 07:42:54;;;;;;;36.28;19.50;;;4.50;99.90;;;;;;4940456;29;20406;-67
2021/11/06 07:45:21;;;;;;;36.38;20.42;;;4.60;99.90;;;;;;4951069;29;20102;-67
2021/11/06 07:47:49;;;;;;;35.88;19.98;;;4.60;99.90;;;;;;4954267;28;20093;-68
2021/11/06 07:50:18;;;;;;;36.80;20.05;;;4.70;99.90;;;;;;4956743;28;20039;-68
2021/11/06 07:52:46;;;;;;;35.53;19.67;;;4.80;99.90;;;;;;4950378;28;20126;-67
2021/11/06 07:55:14;;;;;;;29.70;17.88;;;4.80;99.90;;;;;;4935732;29;20133;-67
2021/11/06 07:57:41;;;;;;;32.05;18.77;;;4.90;99.90;;;;;;4943295;29;20130;-67
2021/11/06 08:00:11;;;;;;;34.83;19.00;;;4.90;99.90;;;;;;4936640;29;20048;-68
2021/11/06 08:02:40;;;;;;;32.70;18.45;;;5.00;99.90;;;;;;4945750;29;20565;-67
2021/11/06 08:05:10;;;;;;;31.65;17.15;;;5.00;99.90;;;;;;4938496;29;20043;-67
2021/11/06 08:07:38;;;;;;;34.60;19.90;;;5.10;99.90;;;;;;4951976;28;20047;-67
2021/11/06 08:10:06;;;;;;;36.03;18.75;;;5.10;99.90;;;;;;4949266;28;20451;-67
2021/11/06 08:12:39;;;;;;;33.22;17.67;;;5.10;99.90;;;;;;4947725;28;20078;-67
2021/11/06 08:15:08;;;;;;;32.80;18.80;;;5.20;99.90;;;;;;4954058;28;20795;-67
2021/11/06 08:17:35;;;;;;;32.55;18.75;;;5.20;99.90;;;;;;4938600;28;20054;-67
2021/11/06 08:20:04;;;;;;;34.70;19.00;;;5.30;99.90;;;;;;4957985;28;20414;-67
2021/11/06 08:22:32;;;;;;;34.10;18.30;;;5.40;99.90;;;;;;4951418;28;20055;-67
2021/11/06 08:24:59;;;;;;;31.98;18.20;;;5.50;99.90;;;;;;4936498;29;20063;-67
2021/11/06 08:27:27;;;;;;;33.67;19.30;;;5.50;99.90;;;;;;4955623;28;20039;-67
2021/11/06 08:29:54;;;;;;;34.42;18.15;;;5.60;99.90;;;;;;4956160;28;20047;-67
2021/11/06 08:32:22;;;;;;;31.65;17.73;;;5.70;99.90;;;;;;4940486;29;20358;-67
2021/11/06 08:34:50;;;;;;;38.15;20.52;;;5.90;99.90;;;;;;4954455;28;20047;-67
2021/11/06 08:37:18;;;;;;;36.45;20.48;;;6.00;99.90;;;;;;4955237;28;20043;-67
2021/11/06 08:39:45;;;;;;;37.78;20.92;;;6.10;99.90;;;;;;4953374;29;20035;-67
2021/11/06 08:42:15;;;;;;;35.28;19.95;;;6.10;99.90;;;;;;4955578;29;20562;-67
2021/11/06 08:44:42;;;;;;;35.20;19.23;;;6.10;99.90;;;;;;4946687;29;20380;-68
2021/11/06 08:47:10;;;;;;;32.60;18.33;;;6.10;99.90;;;;;;4955474;28;20074;-68
2021/11/06 08:49:37;;;;;;;33.33;18.92;;;6.20;99.90;;;;;;4955164;29;20047;-68
2021/11/06 08:52:06;;;;;;;37.30;19.75;;;6.30;99.90;;;;;;4954379;28;20042;-68
2021/11/06 08:54:33;;;;;;;34.30;19.38;;;6.20;99.90;;;;;;4954817;28;20058;-68
2021/11/06 08:57:00;;;;;;;35.13;19.98;;;6.30;99.90;;;;;;4955509;29;20106;-68
2021/11/06 08:59:28;;;;;;;35.03;19.60;;;6.20;99.90;;;;;;4953952;28;20482;-68
2021/11/06 09:01:56;;;;;;;40.05;20.38;;;6.10;99.90;;;;;;4955136;29;20146;-68
2021/11/06 09:04:24;;;;;;;40.50;20.30;;;6.10;99.90;;;;;;4950892;28;20059;-68
2021/11/06 09:06:53;;;;;;;33.45;19.77;;;6.10;99.90;;;;;;4955663;28;20090;-68
2021/11/06 09:09:20;;;;;;;36.13;19.60;;;6.20;99.90;;;;;;4948500;29;20432;-68
2021/11/06 09:11:51;;;;;;;35.25;19.45;;;6.30;99.90;;;;;;4954759;28;20074;-68
2021/11/06 09:14:19;;;;;;;38.45;20.42;;;6.50;99.90;;;;;;4954119;28;20059;-68
2021/11/06 09:16:46;;;;;;;35.40;20.35;;;6.60;99.90;;;;;;4953698;28;20137;-68
2021/11/06 09:19:15;;;;;;;41.40;21.73;;;6.70;99.90;;;;;;4950417;29;20037;-68
2021/11/06 09:21:44;;;;;;;36.65;20.52;;;6.60;99.90;;;;;;4953310;29;20047;-68
2021/11/06 09:24:11;;;;;;;37.53;20.98;;;6.60;99.90;;;;;;4954041;28;20058;-68
2021/11/06 09:26:42;;;;;;;38.53;19.77;;;6.70;99.90;;;;;;4960226;28;20335;-67
2021/11/06 09:29:12;;;;;;;34.20;19.50;;;6.80;99.90;;;;;;4955009;28;20052;-68
2021/11/06 09:31:41;;;;;;;36.33;19.90;;;6.90;99.90;;;;;;4955656;28;20059;-68
2021/11/06 09:34:10;;;;;;;34.88;18.85;;;7.00;99.90;;;;;;4954280;28;20058;-68
2021/11/06 09:36:38;;;;;;;39.65;22.02;;;7.20;99.90;;;;;;4952354;29;20142;-68
2021/11/06 09:39:07;;;;;;;36.10;19.63;;;7.20;99.90;;;;;;4951588;28;20172;-68
2021/11/06 09:41:35;;;;;;;43.50;22.80;;;7.30;99.90;;;;;;4954592;28;20051;-68
2021/11/06 09:44:02;;;;;;;37.40;20.80;;;7.40;99.90;;;;;;4954380;28;20050;-69
2021/11/06 09:46:30;;;;;;;34.00;19.42;;;7.50;99.90;;;;;;4948170;29;20036;-65
2021/11/06 09:48:57;;;;;;;33.20;18.75;;;7.60;99.90;;;;;;4959592;28;20050;-65
2021/11/06 09:51:25;;;;;;;34.83;20.88;;;7.60;99.90;;;;;;4953979;28;20034;-66
2021/11/06 09:53:54;;;;;;;37.28;21.45;;;7.60;99.90;;;;;;4961038;28;20472;-66
2021/11/06 09:56:25;;;;;;;37.92;21.33;;;7.80;99.90;;;;;;4955154;29;20047;-66
2021/11/06 09:58:56;;;;;;;38.85;21.13;;;7.80;99.90;;;;;;4941640;29;20047;-66
2021/11/06 10:01:24;;;;;;;39.20;21.80;;;8.00;99.90;;;;;;4945866;29;20073;-66
2021/11/06 10:03:55;;;;;;;36.28;20.48;;;8.10;99.90;;;;;;4952671;28;20043;-66
2021/11/06 10:06:25;;;;;;;35.33;20.52;;;8.10;99.90;;;;;;4947686;28;20513;-67
2021/11/06 10:08:55;;;;;;;36.35;21.13;;;8.10;99.90;;;;;;4958420;28;20036;-66
2021/11/06 10:11:27;;;;;;;33.28;18.73;;;8.40;99.90;;;;;;4954159;28;20055;-66
2021/11/06 10:14:02;;;;;;;35.17;20.48;;;8.60;99.90;;;;;;4962474;28;20050;-66
2021/11/06 10:16:37;;;;;;;33.33;20.80;;;8.70;99.90;;;;;;4957135;28;20040;-66
2021/11/06 10:19:11;;;;;;;34.10;20.00;;;8.90;99.90;;;;;;4953603;29;20039;-67
2021/11/06 10:21:46;;;;;;;41.40;24.20;;;9.00;99.90;;;;;;4945549;29;20047;-66
2021/11/06 10:24:16;;;;;;;37.72;22.00;;;9.10;99.90;;;;;;4950795;28;20054;-66
2021/11/06 10:26:44;;;;;;;36.00;20.45;;;9.00;99.90;;;;;;4948187;28;20051;-66
2021/11/06 10:29:16;;;;;;;35.13;20.20;;;9.10;99.90;;;;;;4959941;28;20047;-66
2021/11/06 10:31:53;;;;;;;34.45;19.98;;;9.20;99.90;;;;;;4938477;29;20039;-66
2021/11/06 10:34:22;;;;;;;33.78;19.73;;;9.30;99.90;;;;;;4953401;28;20052;-66
2021/11/06 10:37:05;;;;;;;32.20;18.20;;;9.30;99.90;;;;;;4952345;29;20322;-66
2021/11/06 10:39:33;;;;;;;36.72;21.83;;;9.20;99.90;;;;;;4960083;28;20047;-66
2021/11/06 10:42:15;;;;;;;32.75;19.70;;;9.00;99.90;;;;;;4960089;28;20047;-66
2021/11/06 10:44:43;;;;;;;33.10;19.95;;;9.10;99.90;;;;;;4952373;28;20047;-66
2021/11/06 10:47:11;;;;;;;28.40;18.17;;;9.20;99.90;;;;;;4962446;28;20043;-66
2021/11/06 10:49:44;;;;;;;29.92;17.65;;;9.10;99.90;;;;;;4950749;29;20399;-66
2021/11/06 10:52:18;;;;;;;30.92;18.17;;;9.20;99.90;;;;;;4949239;28;20044;-66
2021/11/06 10:54:58;;;;;;;29.23;18.35;;;9.50;99.90;;;;;;4942084;29;20051;-66
2021/11/06 10:57:26;;;;;;;31.58;18.80;;;9.60;99.90;;;;;;4951624;28;20049;-66
2021/11/06 11:00:18;;;;;;;36.25;22.00;;;10.00;99.90;;;;;;4951804;28;20043;-66
2021/11/06 11:02:46;;;;;;;33.72;19.13;;;10.40;99.90;;;;;;4962003;28;20046;-66
2021/11/06 11:05:36;;;;;;;30.73;18.70;;;11.10;99.90;;;;;;4944268;28;20046;-66
2021/11/06 11:08:08;;;;;;;29.77;18.98;;;11.10;99.90;;;;;;4951310;28;20122;-66
2021/11/06 11:10:38;;;;;;;28.35;18.05;;;11.60;99.90;;;;;;4952575;28;20435;-65
2021/11/06 11:13:12;;;;;;;29.05;18.63;;;12.20;99.90;;;;;;4951173;29;20043;-66
2021/11/06 11:15:42;;;;;;;28.52;17.95;;;11.70;99.90;;;;;;4952399;28;20063;-65
2021/11/06 11:18:28;;;;;;;29.23;18.23;;;11.40;99.90;;;;;;4951700;29;20047;-66
2021/11/06 11:21:07;;;;;;;27.13;16.55;;;11.30;99.90;;;;;;4952502;28;20047;-67
2021/11/06 11:23:34;;;;;;;29.65;17.50;;;11.20;99.90;;;;;;4950248;28;20051;-67
2021/11/06 11:26:01;;;;;;;23.70;15.77;;;10.90;99.90;;;;;;4952731;29;20398;-66
2021/11/06 11:28:29;;;;;;;26.20;15.43;;;10.80;99.90;;;;;;4955283;28;20131;-66
2021/11/06 11:30:57;;;;;;;26.23;17.30;;;11.00;99.90;;;;;;4965383;28;20548;-67
2021/11/06 11:33:41;;;;;;;24.75;15.85;;;11.10;99.90;;;;;;4952650;28;20463;-67
2021/11/06 11:36:11;;;;;;;27.15;16.48;;;11.00;99.90;;;;;;4952540;29;20499;-67
2021/11/06 11:38:39;;;;;;;26.77;15.90;;;10.50;99.90;;;;;;4949832;28;20047;-67
2021/11/06 11:41:24;;;;;;;23.23;15.25;;;11.10;99.90;;;;;;4951105;29;20094;-67
2021/11/06 11:44:06;;;;;;;23.52;15.55;;;11.80;99.90;;;;;;4949827;28;20094;-67
2021/11/06 11:46:41;;;;;;;24.98;16.00;;;12.00;99.90;;;;;;4954111;28;20059;-67
2021/11/06 11:49:09;;;;;;;24.25;15.88;;;12.80;99.90;;;;;;4942197;29;20043;-67
2021/11/06 11:51:36;;;;;;;25.60;15.20;;;12.70;99.90;;;;;;4950126;28;20082;-67
2021/11/06 11:54:07;;;;;;;24.52;15.48;;;12.10;99.90;;;;;;4936831;29;20331;-67
2021/11/06 11:56:36;;;;;;;26.20;16.75;;;11.50;99.90;;;;;;4951912;29;20051;-67
2021/11/06 11:59:05;;;;;;;26.92;17.17;;;10.60;99.90;;;;;;4950931;28;20043;-66
2021/11/06 12:01:35;;;;;;;30.33;19.30;;;10.10;99.90;;;;;;4951288;28;20043;-66
2021/11/06 12:04:17;;;;;;;26.90;17.30;;;10.00;99.90;;;;;;4952469;29;20465;-66
2021/11/06 12:06:45;;;;;;;;;;;10.30;99.90;;;;;;4939190;28;20047;-67
2021/11/06 12:09:17;;;;;;;24.27;15.57;;;11.20;99.90;;;;;;4950255;29;20341;-67
2021/11/06 12:11:48;;;;;;;24.30;16.17;;;11.90;99.90;;;;;;4943707;29;20063;-65
2021/11/06 12:14:23;;;;;;;22.13;14.77;;;12.20;99.90;;;;;;4951760;28;20506;-67
2021/11/06 12:16:57;;;;;;;23.42;14.90;;;11.90;99.90;;;;;;4952375;28;20051;-66
2021/11/06 12:19:43;;;;;;;24.50;16.35;;;11.50;99.90;;;;;;4957376;28;20039;-67
2021/11/06 12:22:18;;;;;;;24.63;16.58;;;11.30;99.90;;;;;;4956321;28;20046;-66
2021/11/06 12:24:51;;;;;;;27.08;17.10;;;11.10;99.90;;;;;;4949901;29;20191;-67
2021/11/06 12:27:33;;;;;;;27.30;17.27;;;10.80;99.90;;;;;;4950964;28;20081;-67
2021/11/06 12:30:02;;;;;;;26.55;17.02;;;10.70;99.90;;;;;;4951640;28;20051;-66
2021/11/06 12:32:35;;;;;;;26.15;16.20;;;10.40;99.90;;;;;;4949960;28;20154;-67
2021/11/06 12:35:11;;;;;;;27.55;16.23;;;10.40;99.90;;;;;;4949772;28;20047;-67
2021/11/06 12:37:39;;;;;;;27.08;17.02;;;10.40;99.90;;;;;;4949674;28;20429;-66
2021/11/06 12:40:18;;;;;;;23.25;15.55;;;10.50;99.90;;;;;;4947826;28;20043;-66
2021/11/06 12:43:09;;;;;;;23.38;15.95;;;10.80;99.90;;;;;;4948792;28;20531;-67
2021/11/06 12:45:38;;;;;;;26.52;16.98;;;10.90;99.90;;;;;;4938953;29;20043;-67